Hibbing, MN

7:58 PM CST on December 04, 2016 (GMT -0600)
ASOS_HFM | | Change Station

Elev 1351 ft 47.38 °N, 92.83 °W | Updated 23 minutes ago

Light Snow
Light Snow Mist
30 °F
Feels Like 25 °F
N
5
Wind Variable Wind from SSE
Gusts 0.0 mph

Today
High -- | Low -- °F
--% Chance of Precip.
Yesterday
High -- | Low -- °F
Precip. -- in
Pressure 29.68 in
Visibility 2.0 miles
Clouds Overcast 400 ft
Windchill 25 °F
Dew Point 28 °F
Humidity 93%
Rainfall in
Snow Depth Not available.
7:42 AM 4:21 PM
Waxing Crescent, 27% visible
METAR KHIB 050153Z AUTO 17003KT 2SM -SN BR OVC004 M01/M02 A2961 RMK AO2 SNB23 SLP049 P0000 T10111017
Pressure 29.68 in
Visibility 2.0 miles
Clouds Overcast 400 ft
Windchill 25 °F
Dew Point 28 °F
Humidity 93%
Rainfall in
Snow Depth Not available.
7:42 AM 4:21 PM
Waxing Crescent, 27% visible
METAR KHIB 050153Z AUTO 17003KT 2SM -SN BR OVC004 M01/M02 A2961 RMK AO2 SNB23 SLP049 P0000 T10111017

10-Day Weather Forecast

Almanac

Astronomy

Dec. 04, 2016 Rise Set
Actual Time
Civil Twilight
Nautical Twilight
Astronomical Twilight
Moon
Length of Visible Light
Length of Day
Tomorrow will be .
, % of the Moon is Illuminated

Today's Extremes

State Highs State Lows

Community

WunderPhotos

Upload Photos

1,955,744 photos uploaded!

WunderBlog® & News

Nearby

Air Quality

  Air Quality AQ Index Pollutant
Not available.

Snow Depth

Station Depth Elevation

Earthquake Activity

City Distance Mag. Time & Date
Minimum magnitude displayed is 2.5.

Coastal Water Temperatures

Place Temperature

Stations

Nearby Weather Stations

Station Location Temp. Windchill Dew Point Humidity Wind Precip. Elev Updated Type
                   

Watches & Warnings

There are currently no watches in effect.